VTSH  Songkhla Airport

Add Bookmark

Thailand

Status IATA
Operational SGZ
Latitude Longitude
7° 11' 11" N 100° 36' 28" E
7.186560 100.608002
Local (DST + 7) UTC (GMT + 7)
Oct 25, 2014 01:45 Oct 24, 2014 18:45
Sunrise-Sunset Local UTC
Begin Civil Twilight 05:42 22:42
Sunrise 06:03 23:03
Sunset 05:59 10:59
End Civil Twilight 06:21 11:21

Current Weather

METAR Observed VFR
VTSH 240800Z 04006KT 9999 FEW020CB BKN300 31/24 Q1007 A2974 CB SW-W Fri, Oct 24, 2014 @ 08:00 UTC
(10 Hours, 45 Minutes ago)
Visual Flight Rules
Wind Visibility Clouds Conditions
040° at 6 knots (11 kph) 10 km or more
  • Few at 2,000' AGL
  • Broken at 30,000' AGL
  • No significant weather
Temperatures Readings Precipitation
Current Temp 31°C (88°F)
Dewpoint 24°C (75°F)
Heat Index 37°C (98°F)
Humidity 66%
Altimeter 29.73"Hg
Sea Level Pressure 1007mb
Field Elevation 16.4'
None Recorded

Additional weather within a 92.6km radius of VTSH

Map ICAO Location
VTSS 36.9km S (220°)

24 Hour Weather History

Loading
-

24 Hour Weather Graphs

Loading
-

CheckWX.com is intended as a tool to help pilots better visualize weather data. It is not intended as a substitute for an official weather briefing obtained from a Flight Service Station. CheckWX.com does not meet the FAA requirements for an official pre-flight weather briefing. Therefore, it's important that pilots still call and obtain an official FSS pre-flight weather briefing.